Time;durP1;ratioP1;P1;durP2;ratioP2;P2;SDS_P1;SDS_P2;PMS_P1;PMS_P2;Temp;Humidity;BMP_temperature;BMP_pressure;BME280_temperature;BME280_humidity;BME280_pressure;Samples;Min_cycle;Max_cycle;Signal;HPM_P1;HPM_P2
2022/05/20 00:00:37;;;;;;;34.80;10.85;;;;;;;;;;5040511;28;20033;-71
2022/05/20 00:03:04;;;;;;;28.67;10.80;;;;;;;;;;5044068;28;20041;-71
2022/05/20 00:05:30;;;;;;;23.30;9.95;;;;;;;;;;5042915;28;20460;-70
2022/05/20 00:07:56;;;;;;;27.48;11.10;;;;;;;;;;5042164;28;20086;-71
2022/05/20 00:10:23;;;;;;;29.77;11.60;;;;;;;;;;5041289;28;20021;-70
2022/05/20 00:12:49;;;;;;;23.88;10.40;;;;;;;;;;5041021;28;20060;-70
2022/05/20 00:15:17;;;;;;;32.10;10.93;;;;;;;;;;5039712;28;20041;-71
2022/05/20 00:17:43;;;;;;;28.30;10.70;;;;;;;;;;5044602;28;20511;-71
2022/05/20 00:20:11;;;;;;;28.55;10.75;;;;;;;;;;5038738;28;20022;-71
2022/05/20 00:22:37;;;;;;;25.13;10.90;;;;;;;;;;5039218;28;20090;-71
2022/05/20 00:27:48;;;;;;;29.30;10.45;;;;;;;;;;5048737;28;20095;-71
2022/05/20 00:30:14;;;;;;;26.02;10.15;;;;;;;;;;5049486;28;20029;-71
2022/05/20 00:32:40;;;;;;;29.02;10.45;;;;;;;;;;5051326;28;20029;-70
2022/05/20 00:35:07;;;;;;;29.48;9.88;;;;;;;;;;5053421;28;20041;-71
2022/05/20 00:37:33;;;;;;;22.10;10.32;;;;;;;;;;5053836;28;20033;-70
2022/05/20 00:39:59;;;;;;;25.77;9.40;;;;;;;;;;5051705;28;20115;-70
2022/05/20 00:42:26;;;;;;;24.25;7.65;;;;;;;;;;5048744;28;20044;-70
2022/05/20 00:44:52;;;;;;;25.65;9.20;;;;;;;;;;5064597;28;20047;-70
2022/05/20 00:47:18;;;;;;;25.92;9.07;;;;;;;;;;5061381;28;20477;-70
2022/05/20 00:49:46;;;;;;;19.77;8.15;;;;;;;;;;5057150;28;20025;-71
2022/05/20 00:52:14;;;;;;;26.40;8.38;;;;;;;;;;5051188;28;20032;-70
2022/05/20 00:54:46;;;;;;;24.08;7.75;;;;;;;;;;5051033;28;20093;-70
2022/05/20 00:57:12;;;;;;;22.30;7.53;;;;;;;;;;5051005;28;20045;-70
2022/05/20 00:59:41;;;;;;;20.88;8.35;;;;;;;;;;5055202;28;20082;-69
2022/05/20 01:02:09;;;;;;;22.98;8.77;;;;;;;;;;5048931;28;20597;-70
2022/05/20 01:04:36;;;;;;;18.95;7.50;;;;;;;;;;5052528;28;20040;-70
2022/05/20 01:07:02;;;;;;;26.40;8.63;;;;;;;;;;5052279;28;20017;-70
2022/05/20 01:09:29;;;;;;;23.95;8.35;;;;;;;;;;5052922;28;20904;-70
2022/05/20 01:11:56;;;;;;;22.20;8.38;;;;;;;;;;5055471;28;20025;-70
2022/05/20 01:14:23;;;;;;;22.27;8.10;;;;;;;;;;5056500;28;20024;-70
2022/05/20 01:16:50;;;;;;;20.27;7.63;;;;;;;;;;5056169;28;20029;-71
2022/05/20 01:19:36;;;;;;;23.88;8.73;;;;;;;;;;5055618;28;20029;-70
2022/05/20 01:22:04;;;;;;;22.25;8.55;;;;;;;;;;5055729;28;20032;-70
2022/05/20 01:24:30;;;;;;;17.70;8.60;;;;;;;;;;5058147;28;20037;-70
2022/05/20 01:26:56;;;;;;;21.05;7.90;;;;;;;;;;5055277;28;20404;-70
2022/05/20 01:29:23;;;;;;;23.52;8.25;;;;;;;;;;5057785;28;20036;-70
2022/05/20 01:31:49;;;;;;;21.88;7.72;;;;;;;;;;5056251;28;20021;-70
2022/05/20 01:34:15;;;;;;;17.70;7.72;;;;;;;;;;5054961;28;20045;-70
2022/05/20 01:36:41;;;;;;;24.25;8.70;;;;;;;;;;5056250;28;20079;-70
2022/05/20 01:39:08;;;;;;;17.52;8.32;;;;;;;;;;5056194;28;20021;-70
2022/05/20 01:41:46;;;;;;;21.48;7.78;;;;;;;;;;5055146;28;20037;-69
2022/05/20 01:44:12;;;;;;;19.30;7.90;;;;;;;;;;5057168;28;20040;-70
2022/05/20 01:46:41;;;;;;;19.73;8.30;;;;;;;;;;5055691;28;20476;-70
2022/05/20 01:49:18;;;;;;;19.17;8.02;;;;;;;;;;5055141;28;20025;-70
2022/05/20 01:51:47;;;;;;;19.63;7.97;;;;;;;;;;5056028;28;20032;-70
2022/05/20 01:54:18;;;;;;;17.55;8.75;;;;;;;;;;5055662;28;20067;-70
2022/05/20 01:56:50;;;;;;;21.42;8.93;;;;;;;;;;5053464;28;20027;-69
2022/05/20 01:59:28;;;;;;;22.02;8.98;;;;;;;;;;5055426;28;20037;-69
2022/05/20 02:02:11;;;;;;;20.45;8.48;;;;;;;;;;5055780;28;20064;-70
2022/05/20 02:04:43;;;;;;;20.75;7.68;;;;;;;;;;5056626;28;20036;-70
2022/05/20 02:31:41;;;;;;;19.43;7.37;;;;;;;;;;5056170;28;20573;-70
2022/05/20 02:34:07;;;;;;;18.33;6.53;;;;;;;;;;5054489;28;20044;-70
2022/05/20 02:36:36;;;;;;;19.02;8.10;;;;;;;;;;5055164;28;20029;-71
2022/05/20 02:39:04;;;;;;;16.98;7.40;;;;;;;;;;5054153;28;20442;-70
2022/05/20 02:41:30;;;;;;;22.35;7.25;;;;;;;;;;5056642;28;20477;-70
2022/05/20 02:43:57;;;;;;;17.00;7.72;;;;;;;;;;5054532;28;20041;-70
2022/05/20 02:46:23;;;;;;;18.70;6.95;;;;;;;;;;5056163;28;20552;-71
2022/05/20 02:48:49;;;;;;;19.83;7.57;;;;;;;;;;5054432;28;20025;-70
2022/05/20 02:51:17;;;;;;;20.80;7.85;;;;;;;;;;5054567;28;20086;-70
2022/05/20 02:53:44;;;;;;;21.20;7.72;;;;;;;;;;5053899;28;20056;-70
2022/05/20 02:56:10;;;;;;;15.52;7.40;;;;;;;;;;5054321;28;20345;-70
2022/05/20 03:04:12;;;;;;;17.88;7.68;;;;;;;;;;5054227;28;20051;-70
2022/05/20 03:06:42;;;;;;;21.65;7.30;;;;;;;;;;5054675;28;20029;-70
2022/05/20 03:09:10;;;;;;;16.88;7.78;;;;;;;;;;5054320;28;20039;-70
2022/05/20 03:11:36;;;;;;;20.58;8.93;;;;;;;;;;5053522;28;20464;-70
2022/05/20 03:14:03;;;;;;;23.40;7.82;;;;;;;;;;5053603;28;20021;-70
2022/05/20 03:16:29;;;;;;;19.98;7.93;;;;;;;;;;5053494;28;20111;-70
2022/05/20 03:18:55;;;;;;;21.65;8.68;;;;;;;;;;5055567;28;20107;-70
2022/05/20 03:21:22;;;;;;;21.48;8.60;;;;;;;;;;5055398;28;20373;-70
2022/05/20 03:23:48;;;;;;;21.58;8.90;;;;;;;;;;5053195;28;20040;-70
2022/05/20 03:26:15;;;;;;;18.63;8.52;;;;;;;;;;5054239;28;20037;-70
2022/05/20 03:28:43;;;;;;;17.08;8.30;;;;;;;;;;5053816;28;20489;-71
2022/05/20 03:31:10;;;;;;;19.80;9.15;;;;;;;;;;5053007;28;20378;-70
2022/05/20 03:33:37;;;;;;;23.05;9.48;;;;;;;;;;5053920;28;20369;-70
2022/05/20 03:36:04;;;;;;;25.38;9.63;;;;;;;;;;5053738;28;20032;-70
2022/05/20 03:38:30;;;;;;;21.13;9.18;;;;;;;;;;5051824;28;20128;-70
2022/05/20 03:40:56;;;;;;;21.23;8.88;;;;;;;;;;5052950;28;20037;-70
2022/05/20 03:43:23;;;;;;;30.10;11.98;;;;;;;;;;5053685;28;20516;-70
2022/05/20 03:45:49;;;;;;;24.58;13.07;;;;;;;;;;5053419;28;20036;-70
2022/05/20 03:48:15;;;;;;;34.13;15.95;;;;;;;;;;5053697;28;20044;-70
2022/05/20 03:50:41;;;;;;;31.88;16.98;;;;;;;;;;5052875;28;20025;-70
2022/05/20 03:53:08;;;;;;;40.95;18.27;;;;;;;;;;5053393;28;20035;-71
2022/05/20 03:55:34;;;;;;;39.83;18.95;;;;;;;;;;5051929;28;20063;-70
2022/05/20 03:58:00;;;;;;;35.60;19.17;;;;;;;;;;5054495;28;20077;-70
2022/05/20 04:00:26;;;;;;;42.95;19.25;;;;;;;;;;5054994;28;20396;-70
2022/05/20 04:02:52;;;;;;;36.38;19.45;;;;;;;;;;5051727;28;20045;-70
2022/05/20 04:05:18;;;;;;;39.40;18.25;;;;;;;;;;5054664;28;20532;-70
2022/05/20 04:07:44;;;;;;;35.58;16.33;;;;;;;;;;5051678;28;20039;-70
2022/05/20 04:10:10;;;;;;;32.88;15.55;;;;;;;;;;5053014;28;20039;-70
2022/05/20 04:12:38;;;;;;;34.38;15.52;;;;;;;;;;5053444;28;20029;-70
2022/05/20 04:15:05;;;;;;;36.15;14.82;;;;;;;;;;5052600;28;20025;-70
2022/05/20 04:17:31;;;;;;;29.90;15.07;;;;;;;;;;5051976;28;20112;-70
2022/05/20 04:19:58;;;;;;;28.85;13.95;;;;;;;;;;5052825;28;20021;-70
2022/05/20 04:22:33;;;;;;;28.52;14.10;;;;;;;;;;5053002;28;20108;-70
2022/05/20 04:25:00;;;;;;;26.77;13.45;;;;;;;;;;5052905;28;20021;-70
2022/05/20 04:27:29;;;;;;;31.45;14.00;;;;;;;;;;5053156;28;20024;-70
2022/05/20 04:29:56;;;;;;;31.20;13.88;;;;;;;;;;5051382;28;20485;-70
2022/05/20 04:32:22;;;;;;;26.67;13.38;;;;;;;;;;5053034;28;20037;-70
2022/05/20 04:34:49;;;;;;;39.40;14.05;;;;;;;;;;5053218;28;20047;-70
2022/05/20 04:37:15;;;;;;;35.78;14.32;;;;;;;;;;5054333;28;20103;-70
2022/05/20 04:39:41;;;;;;;36.15;15.00;;;;;;;;;;5052283;28;20089;-70
2022/05/20 04:47:41;;;;;;;32.80;13.98;;;;;;;;;;5052255;28;20094;-69
2022/05/20 04:50:08;;;;;;;33.20;15.85;;;;;;;;;;5052304;28;20029;-70
2022/05/20 04:52:34;;;;;;;31.77;14.48;;;;;;;;;;5052269;28;20021;-69
2022/05/20 04:55:01;;;;;;;31.25;14.75;;;;;;;;;;5052519;28;20033;-69
2022/05/20 04:57:27;;;;;;;36.47;12.95;;;;;;;;;;5052258;28;20062;-69
2022/05/20 04:59:54;;;;;;;30.27;13.02;;;;;;;;;;5051656;28;20493;-69
2022/05/20 05:02:21;;;;;;;33.38;13.18;;;;;;;;;;5051928;28;20033;-70
2022/05/20 05:04:47;;;;;;;33.92;13.60;;;;;;;;;;5052122;28;20037;-70
2022/05/20 05:07:13;;;;;;;31.88;13.73;;;;;;;;;;5052915;28;20025;-70
2022/05/20 05:09:40;;;;;;;30.42;13.38;;;;;;;;;;5052639;28;20029;-70
2022/05/20 05:12:07;;;;;;;31.25;12.32;;;;;;;;;;5052011;28;20760;-70
2022/05/20 05:14:40;;;;;;;33.35;12.23;;;;;;;;;;5049793;28;20082;-70
2022/05/20 05:17:08;;;;;;;26.80;12.80;;;;;;;;;;5054159;28;20551;-70
2022/05/20 05:19:36;;;;;;;27.85;12.52;;;;;;;;;;5053089;28;20322;-70
2022/05/20 05:22:02;;;;;;;23.63;11.55;;;;;;;;;;5053639;28;20021;-70
2022/05/20 05:24:28;;;;;;;20.08;10.95;;;;;;;;;;5052546;28;20040;-70
2022/05/20 05:26:54;;;;;;;26.98;11.43;;;;;;;;;;5050772;28;20052;-70
2022/05/20 05:29:20;;;;;;;19.70;10.10;;;;;;;;;;5051049;28;20057;-70
2022/05/20 05:31:48;;;;;;;17.30;8.85;;;;;;;;;;5052085;28;20032;-70
2022/05/20 05:34:14;;;;;;;26.05;10.10;;;;;;;;;;5068568;23;20073;-72
2022/05/20 05:36:41;;;;;;;21.80;9.95;;;;;;;;;;5051588;28;20021;-73
2022/05/20 05:39:07;;;;;;;21.42;10.15;;;;;;;;;;5049710;28;20037;-73
2022/05/20 05:41:33;;;;;;;17.85;10.05;;;;;;;;;;5048809;28;20104;-73
2022/05/20 05:44:02;;;;;;;16.92;9.55;;;;;;;;;;5051541;28;20041;-74
2022/05/20 05:46:28;;;;;;;20.25;9.40;;;;;;;;;;5051033;28;20025;-73
2022/05/20 05:48:54;;;;;;;20.35;10.02;;;;;;;;;;5051233;28;20025;-73
2022/05/20 05:51:20;;;;;;;21.92;9.55;;;;;;;;;;5051440;28;20028;-73
2022/05/20 05:53:47;;;;;;;19.45;10.20;;;;;;;;;;5050433;28;20028;-73
2022/05/20 05:56:13;;;;;;;20.77;10.38;;;;;;;;;;5051800;28;20044;-73
2022/05/20 05:58:39;;;;;;;23.58;10.32;;;;;;;;;;5055751;28;20028;-73
2022/05/20 06:01:06;;;;;;;19.48;10.27;;;;;;;;;;5062216;28;20414;-73
2022/05/20 06:03:32;;;;;;;20.23;9.48;;;;;;;;;;5055406;28;20464;-73
2022/05/20 06:05:58;;;;;;;19.58;10.63;;;;;;;;;;5052812;28;20452;-73
2022/05/20 06:08:24;;;;;;;24.17;10.77;;;;;;;;;;5049528;28;20101;-73
2022/05/20 06:10:50;;;;;;;20.20;10.88;;;;;;;;;;5053993;28;20041;-73
2022/05/20 06:13:27;;;;;;;19.83;10.65;;;;;;;;;;5049123;28;20380;-73
2022/05/20 06:15:57;;;;;;;22.52;10.40;;;;;;;;;;5045427;28;20029;-73
2022/05/20 06:18:23;;;;;;;20.83;9.98;;;;;;;;;;5037369;28;20082;-72
2022/05/20 06:20:49;;;;;;;25.23;10.25;;;;;;;;;;5041942;28;20032;-72
2022/05/20 06:23:16;;;;;;;25.15;10.27;;;;;;;;;;5054101;28;20410;-72
2022/05/20 06:25:42;;;;;;;25.05;10.27;;;;;;;;;;5053861;28;20494;-72
2022/05/20 06:28:10;;;;;;;24.58;11.10;;;;;;;;;;5054264;28;20036;-71
2022/05/20 06:30:37;;;;;;;21.23;10.02;;;;;;;;;;5054563;28;20017;-71
2022/05/20 06:33:03;;;;;;;17.08;9.40;;;;;;;;;;5053199;28;20035;-71
2022/05/20 06:41:00;;;;;;;22.60;10.40;;;;;;;;;;5054330;28;20036;-70
2022/05/20 06:43:27;;;;;;;19.92;9.02;;;;;;;;;;5053188;28;20559;-71
2022/05/20 06:45:58;;;;;;;20.30;8.60;;;;;;;;;;5053474;28;20108;-71
2022/05/20 06:48:24;;;;;;;21.58;9.75;;;;;;;;;;5036309;28;20512;-71
2022/05/20 06:50:51;;;;;;;16.42;8.45;;;;;;;;;;5050830;28;20029;-71
2022/05/20 06:53:17;;;;;;;17.25;9.07;;;;;;;;;;5052741;28;20039;-71
2022/05/20 06:55:43;;;;;;;22.27;8.90;;;;;;;;;;5051997;28;20087;-71
2022/05/20 06:58:09;;;;;;;22.88;8.90;;;;;;;;;;5052201;28;20106;-71
2022/05/20 07:00:35;;;;;;;17.58;8.85;;;;;;;;;;5053418;28;20078;-72
2022/05/20 07:03:01;;;;;;;21.63;8.93;;;;;;;;;;5052536;28;20096;-71
2022/05/20 07:05:28;;;;;;;18.65;8.98;;;;;;;;;;5047150;28;20021;-72
2022/05/20 07:07:56;;;;;;;16.58;8.23;;;;;;;;;;5048004;28;20506;-72
2022/05/20 07:10:22;;;;;;;18.88;8.27;;;;;;;;;;5049557;28;20017;-72
2022/05/20 07:12:48;;;;;;;16.15;7.72;;;;;;;;;;5050841;28;20037;-72
2022/05/20 07:15:14;;;;;;;21.33;8.65;;;;;;;;;;5048549;28;20029;-72
2022/05/20 07:17:41;;;;;;;19.75;8.73;;;;;;;;;;5049157;28;20086;-72
2022/05/20 07:20:10;;;;;;;20.60;8.57;;;;;;;;;;5050246;28;20530;-71
2022/05/20 07:22:36;;;;;;;21.30;9.55;;;;;;;;;;5047988;28;20036;-72
2022/05/20 07:25:02;;;;;;;16.35;8.82;;;;;;;;;;5047790;28;20291;-71
2022/05/20 07:27:30;;;;;;;20.92;8.70;;;;;;;;;;5047954;28;20106;-72
2022/05/20 07:29:56;;;;;;;16.88;8.75;;;;;;;;;;5047623;28;20025;-72
2022/05/20 07:32:22;;;;;;;15.55;8.45;;;;;;;;;;5048251;28;20044;-71
2022/05/20 07:34:48;;;;;;;17.48;9.05;;;;;;;;;;5048665;28;20041;-72
2022/05/20 07:37:15;;;;;;;15.57;8.15;;;;;;;;;;5048078;28;20044;-71
2022/05/20 07:39:41;;;;;;;19.77;8.43;;;;;;;;;;5051247;28;20021;-71
2022/05/20 07:42:07;;;;;;;15.45;8.20;;;;;;;;;;5051442;28;20032;-71
2022/05/20 07:44:35;;;;;;;19.13;8.13;;;;;;;;;;5049796;28;20036;-72
2022/05/20 07:47:01;;;;;;;18.63;8.25;;;;;;;;;;5052633;28;20041;-71
2022/05/20 07:49:28;;;;;;;14.88;7.65;;;;;;;;;;5052712;28;20079;-71
2022/05/20 07:51:57;;;;;;;18.15;8.77;;;;;;;;;;5053223;28;20025;-72
2022/05/20 07:54:24;;;;;;;24.38;9.25;;;;;;;;;;5038178;28;20033;-71
2022/05/20 07:56:55;;;;;;;15.52;7.13;;;;;;;;;;5044995;28;20021;-71
2022/05/20 07:59:44;;;;;;;16.83;7.43;;;;;;;;;;5054236;28;20033;-71
2022/05/20 08:02:10;;;;;;;20.88;6.75;;;;;;;;;;5041593;28;20076;-72
2022/05/20 08:04:58;;;;;;;17.38;7.07;;;;;;;;;;5050909;28;20402;-71
2022/05/20 08:07:31;;;;;;;15.95;6.70;;;;;;;;;;5050489;28;20048;-72
2022/05/20 08:09:58;;;;;;;17.92;7.45;;;;;;;;;;5041712;28;20512;-72
2022/05/20 08:12:24;;;;;;;14.43;6.82;;;;;;;;;;5050617;28;20024;-73
2022/05/20 08:14:50;;;;;;;18.95;7.70;;;;;;;;;;5047313;28;20029;-72
2022/05/20 08:17:18;;;;;;;16.25;6.38;;;;;;;;;;5051775;28;20064;-72
2022/05/20 08:19:44;;;;;;;23.42;6.90;;;;;;;;;;5050938;28;20661;-71
2022/05/20 08:22:10;;;;;;;15.40;6.70;;;;;;;;;;5051544;28;20056;-71
2022/05/20 08:24:37;;;;;;;21.00;7.22;;;;;;;;;;5052018;28;20041;-71
2022/05/20 08:27:03;;;;;;;17.75;7.90;;;;;;;;;;5051607;28;20091;-72
2022/05/20 08:29:32;;;;;;;17.65;8.20;;;;;;;;;;5050549;28;20025;-72
2022/05/20 08:31:58;;;;;;;21.23;8.27;;;;;;;;;;5052233;28;20025;-72
2022/05/20 08:34:24;;;;;;;17.83;7.78;;;;;;;;;;5052068;28;20048;-72
2022/05/20 08:36:50;;;;;;;14.48;8.15;;;;;;;;;;5053154;28;20047;-72
2022/05/20 08:39:17;;;;;;;18.50;8.85;;;;;;;;;;5050797;28;20094;-72
2022/05/20 08:41:47;;;;;;;17.80;8.27;;;;;;;;;;5050962;28;20053;-72
2022/05/20 08:44:16;;;;;;;16.58;8.55;;;;;;;;;;5052148;28;20109;-72
2022/05/20 08:46:43;;;;;;;19.35;9.02;;;;;;;;;;5050424;28;20175;-72
2022/05/20 08:49:14;;;;;;;18.88;8.07;;;;;;;;;;5051412;28;20029;-72
2022/05/20 08:51:41;;;;;;;17.75;7.75;;;;;;;;;;5051455;28;20059;-72
2022/05/20 08:54:08;;;;;;;20.85;7.75;;;;;;;;;;5050985;28;20025;-72
2022/05/20 08:56:37;;;;;;;20.77;8.55;;;;;;;;;;5048354;28;20541;-72
2022/05/20 08:59:05;;;;;;;20.70;7.53;;;;;;;;;;5051441;28;20021;-72
2022/05/20 09:01:42;;;;;;;19.75;8.48;;;;;;;;;;5051972;28;20092;-71
2022/05/20 09:04:10;;;;;;;16.73;8.07;;;;;;;;;;5050588;28;20071;-72
2022/05/20 09:06:41;;;;;;;16.17;7.47;;;;;;;;;;5051644;28;20025;-72
2022/05/20 09:09:07;;;;;;;19.80;8.75;;;;;;;;;;5050867;28;20490;-74
2022/05/20 09:11:33;;;;;;;16.30;8.63;;;;;;;;;;5051403;28;20500;-70
2022/05/20 09:17:12;;;;;;;19.00;7.60;;;;;;;;;;5050228;28;20040;-72
2022/05/20 09:19:39;;;;;;;25.38;7.88;;;;;;;;;;5050008;28;20029;-73
2022/05/20 09:22:14;;;;;;;15.90;7.38;;;;;;;;;;5050793;28;20036;-72
2022/05/20 09:24:44;;;;;;;20.70;8.38;;;;;;;;;;5050799;28;20033;-73
2022/05/20 09:27:13;;;;;;;23.00;7.47;;;;;;;;;;5050831;28;20494;-72
2022/05/20 09:29:39;;;;;;;17.20;7.45;;;;;;;;;;5049871;28;20386;-72
2022/05/20 09:32:06;;;;;;;16.17;7.65;;;;;;;;;;5052002;28;20179;-72
2022/05/20 09:34:32;;;;;;;20.23;8.25;;;;;;;;;;5052484;28;20052;-73
2022/05/20 09:37:16;;;;;;;18.13;7.40;;;;;;;;;;5056641;28;20072;-72
2022/05/20 09:39:47;;;;;;;16.95;7.32;;;;;;;;;;5056257;28;20032;-72
2022/05/20 09:42:21;;;;;;;18.25;7.00;;;;;;;;;;5054187;28;20029;-73
2022/05/20 09:44:55;;;;;;;16.98;7.07;;;;;;;;;;5053958;28;20040;-72
2022/05/20 09:47:24;;;;;;;18.35;7.53;;;;;;;;;;5055405;28;20096;-72
2022/05/20 09:49:59;;;;;;;21.60;7.20;;;;;;;;;;5055678;28;20029;-72
2022/05/20 09:52:39;;;;;;;15.65;6.80;;;;;;;;;;5054969;28;20033;-72
2022/05/20 09:55:12;;;;;;;31.10;8.35;;;;;;;;;;5055638;28;20031;-73
2022/05/20 09:57:46;;;;;;;18.55;7.03;;;;;;;;;;5054232;28;20078;-73
2022/05/20 10:00:17;;;;;;;16.35;6.82;;;;;;;;;;5052756;28;20029;-72
2022/05/20 10:02:55;;;;;;;23.02;7.72;;;;;;;;;;5053349;28;20079;-73
2022/05/20 10:05:33;;;;;;;22.30;7.40;;;;;;;;;;5051659;28;20026;-73
2022/05/20 10:08:19;;;;;;;24.80;7.60;;;;;;;;;;5051457;28;20017;-73
2022/05/20 10:10:52;;;;;;;18.92;7.25;;;;;;;;;;5053972;28;20441;-72
2022/05/20 10:13:24;;;;;;;24.90;8.15;;;;;;;;;;5054093;28;20513;-70
2022/05/20 10:15:52;;;;;;;19.25;7.38;;;;;;;;;;5054117;28;20056;-71
2022/05/20 10:18:35;;;;;;;21.77;6.22;;;;;;;;;;5053865;28;20025;-73
2022/05/20 10:21:08;;;;;;;18.80;6.75;;;;;;;;;;5050249;28;20183;-72
2022/05/20 10:23:49;;;;;;;15.68;7.07;;;;;;;;;;5050495;28;20041;-73
2022/05/20 10:26:24;;;;;;;17.30;6.32;;;;;;;;;;5053965;28;20078;-71
2022/05/20 10:34:42;;;;;;;25.70;6.67;;;;;;;;;;5054842;28;20055;-71
2022/05/20 10:37:15;;;;;;;19.27;7.47;;;;;;;;;;5051288;28;20337;-71
2022/05/20 10:39:54;;;;;;;15.70;6.20;;;;;;;;;;5038627;28;20029;-71
2022/05/20 10:42:43;;;;;;;19.45;6.40;;;;;;;;;;5053526;28;20039;-71
2022/05/20 10:48:35;;;;;;;20.37;7.17;;;;;;;;;;5052491;28;20048;-71
2022/05/20 10:51:16;;;;;;;16.33;6.45;;;;;;;;;;5050094;28;20103;-71
2022/05/20 10:54:07;;;;;;;20.90;6.85;;;;;;;;;;5051102;28;20021;-71
2022/05/20 10:56:39;;;;;;;16.67;6.40;;;;;;;;;;5052087;28;20041;-71
2022/05/20 10:59:20;;;;;;;21.45;6.50;;;;;;;;;;5048473;28;20065;-71
2022/05/20 11:01:46;;;;;;;12.20;5.65;;;;;;;;;;5050952;28;20031;-71
2022/05/20 11:04:28;;;;;;;18.98;6.07;;;;;;;;;;5049919;28;20045;-72
2022/05/20 11:06:54;;;;;;;21.55;5.20;;;;;;;;;;5050283;28;20033;-71
2022/05/20 11:09:33;;;;;;;19.63;5.63;;;;;;;;;;5053042;28;20028;-71
2022/05/20 11:12:04;;;;;;;19.45;6.30;;;;;;;;;;5051292;28;20033;-71
2022/05/20 11:14:35;;;;;;;19.75;5.60;;;;;;;;;;5053043;28;20033;-70
2022/05/20 11:17:05;;;;;;;16.58;5.35;;;;;;;;;;5050200;28;20017;-72
2022/05/20 11:19:55;;;;;;;22.10;6.03;;;;;;;;;;5050200;28;20029;-72
2022/05/20 11:22:39;;;;;;;17.98;4.95;;;;;;;;;;5054314;28;20033;-72
2022/05/20 11:25:26;;;;;;;20.02;6.13;;;;;;;;;;5054744;28;20029;-70
2022/05/20 11:27:58;;;;;;;13.13;5.07;;;;;;;;;;5054012;28;20037;-70
2022/05/20 11:30:30;;;;;;;17.25;5.47;;;;;;;;;;5038590;28;20037;-69
2022/05/20 11:32:59;;;;;;;16.52;5.32;;;;;;;;;;5051229;28;20116;-70
2022/05/20 11:35:35;;;;;;;20.73;5.57;;;;;;;;;;5053504;28;20037;-73
2022/05/20 11:38:26;;;;;;;16.42;5.35;;;;;;;;;;5053064;28;20021;-72
2022/05/20 11:40:52;;;;;;;19.05;5.47;;;;;;;;;;5052686;28;20032;-71
2022/05/20 11:43:35;;;;;;;13.63;5.82;;;;;;;;;;5052701;28;20037;-74
2022/05/20 11:46:04;;;;;;;18.10;5.53;;;;;;;;;;5053090;28;20504;-70
2022/05/20 11:48:30;;;;;;;13.73;5.47;;;;;;;;;;5053129;28;20523;-69
2022/05/20 11:51:02;;;;;;;16.55;6.10;;;;;;;;;;5050716;28;20116;-70
2022/05/20 11:53:43;;;;;;;13.48;5.22;;;;;;;;;;5053649;28;20033;-70
2022/05/20 11:56:16;;;;;;;14.45;5.22;;;;;;;;;;5051396;28;20033;-70
2022/05/20 11:58:46;;;;;;;17.13;5.65;;;;;;;;;;5051831;28;20021;-71
2022/05/20 12:01:13;;;;;;;17.23;6.88;;;;;;;;;;5052184;28;20032;-73
2022/05/20 12:06:27;;;;;;;14.77;5.22;;;;;;;;;;5047197;28;20519;-72
2022/05/20 12:08:53;;;;;;;14.75;5.38;;;;;;;;;;5047057;28;20513;-69
2022/05/20 12:11:24;;;;;;;15.75;5.32;;;;;;;;;;5048805;28;20079;-68
2022/05/20 12:14:00;;;;;;;12.73;5.47;;;;;;;;;;5042631;28;20049;-69
2022/05/20 12:16:26;;;;;;;14.48;4.63;;;;;;;;;;5041867;28;20547;-68
2022/05/20 12:24:28;;;;;;;22.48;5.70;;;;;;;;;;5049194;28;20520;-68
2022/05/20 12:26:57;;;;;;;18.77;5.72;;;;;;;;;;5041537;28;20074;-67
2022/05/20 12:29:37;;;;;;;15.55;5.60;;;;;;;;;;5031589;28;20651;-68
2022/05/20 12:32:22;;;;;;;11.93;6.28;;;;;;;;;;5039915;28;20057;-68
2022/05/20 12:35:05;;;;;;;13.20;5.80;;;;;;;;;;5042848;28;20037;-67
2022/05/20 12:37:43;;;;;;;14.25;5.32;;;;;;;;;;5049419;28;20025;-64
2022/05/20 12:40:20;;;;;;;15.38;5.50;;;;;;;;;;5043101;28;20060;-65
2022/05/20 12:42:49;;;;;;;16.40;5.40;;;;;;;;;;5044771;28;20115;-65
2022/05/20 12:45:15;;;;;;;17.17;6.38;;;;;;;;;;5044422;28;20037;-66
2022/05/20 12:47:41;;;;;;;10.85;5.00;;;;;;;;;;5048624;28;20021;-65
2022/05/20 12:50:19;;;;;;;18.33;6.05;;;;;;;;;;5044757;28;20041;-66
2022/05/20 12:52:49;;;;;;;16.80;5.30;;;;;;;;;;5045308;28;20473;-66
2022/05/20 12:55:25;;;;;;;16.35;5.30;;;;;;;;;;5045812;28;20021;-66
2022/05/20 12:57:54;;;;;;;10.73;5.40;;;;;;;;;;5045738;28;20558;-66
2022/05/20 13:00:26;;;;;;;12.55;5.45;;;;;;;;;;5046606;28;20022;-66
2022/05/20 13:02:57;;;;;;;14.43;5.15;;;;;;;;;;5048783;28;20041;-66
2022/05/20 13:05:34;;;;;;;14.65;5.18;;;;;;;;;;5048713;28;20029;-66
2022/05/20 13:08:01;;;;;;;12.05;4.75;;;;;;;;;;5048741;28;20029;-66
2022/05/20 13:10:30;;;;;;;9.90;4.80;;;;;;;;;;5047562;28;20040;-66
2022/05/20 13:13:06;;;;;;;16.25;5.22;;;;;;;;;;5048576;28;20029;-65
2022/05/20 13:15:32;;;;;;;10.63;4.75;;;;;;;;;;5045346;28;20033;-65
2022/05/20 13:17:59;;;;;;;13.50;4.82;;;;;;;;;;5064053;28;20028;-66
2022/05/20 13:20:27;;;;;;;11.95;5.00;;;;;;;;;;5046885;28;20151;-66
2022/05/20 13:22:58;;;;;;;13.57;5.03;;;;;;;;;;5045941;28;20044;-66
2022/05/20 13:25:24;;;;;;;14.10;5.82;;;;;;;;;;5047060;28;20103;-66
2022/05/20 13:27:50;;;;;;;19.38;4.95;;;;;;;;;;5045549;28;20036;-67
2022/05/20 13:30:19;;;;;;;16.83;4.82;;;;;;;;;;5046218;28;20048;-65
2022/05/20 13:32:45;;;;;;;11.93;4.55;;;;;;;;;;5048652;28;20036;-66
2022/05/20 13:35:12;;;;;;;11.90;4.50;;;;;;;;;;5050529;28;20483;-65
2022/05/20 13:37:39;;;;;;;12.23;4.78;;;;;;;;;;5046851;28;20032;-65
2022/05/20 13:40:12;;;;;;;14.30;4.20;;;;;;;;;;5043368;28;20119;-66
2022/05/20 13:42:40;;;;;;;15.82;5.05;;;;;;;;;;5045721;28;20045;-65
2022/05/20 13:45:13;;;;;;;11.70;4.72;;;;;;;;;;5048846;28;20493;-67
2022/05/20 13:50:25;;;;;;;10.73;3.78;;;;;;;;;;5049114;28;20416;-65
2022/05/20 13:52:53;;;;;;;10.90;4.72;;;;;;;;;;5040369;28;20029;-66
2022/05/20 13:55:29;;;;;;;12.25;4.70;;;;;;;;;;5043089;28;20041;-65
2022/05/20 13:57:55;;;;;;;13.95;5.68;;;;;;;;;;5046035;28;20057;-66
2022/05/20 14:00:27;;;;;;;11.43;4.75;;;;;;;;;;5047227;28;20037;-66
2022/05/20 14:03:03;;;;;;;10.88;4.32;;;;;;;;;;5046647;28;20048;-66
2022/05/20 14:05:44;;;;;;;14.50;6.00;;;;;;;;;;5045539;28;20051;-66
2022/05/20 14:08:11;;;;;;;14.02;4.90;;;;;;;;;;5038920;28;20048;-67
2022/05/20 14:10:39;;;;;;;12.65;4.90;;;;;;;;;;5041720;28;20079;-66
2022/05/20 14:13:08;;;;;;;10.77;5.03;;;;;;;;;;5045917;28;20033;-66
2022/05/20 14:15:41;;;;;;;11.52;5.40;;;;;;;;;;5044322;28;20493;-66
2022/05/20 14:18:10;;;;;;;10.45;4.60;;;;;;;;;;5041174;28;21105;-65
2022/05/20 14:20:38;;;;;;;14.15;5.38;;;;;;;;;;5047218;28;20040;-65
2022/05/20 14:23:08;;;;;;;10.88;4.78;;;;;;;;;;5045544;28;20040;-68
2022/05/20 14:25:45;;;;;;;13.73;4.88;;;;;;;;;;5049147;28;20021;-68
2022/05/20 14:28:18;;;;;;;11.57;4.55;;;;;;;;;;5047548;28;20075;-66
2022/05/20 14:31:10;;;;;;;17.50;5.53;;;;;;;;;;5048001;28;20053;-66
2022/05/20 14:33:37;;;;;;;14.70;4.57;;;;;;;;;;5031483;28;20041;-66
2022/05/20 14:36:06;;;;;;;16.33;4.75;;;;;;;;;;5050380;28;20501;-66
2022/05/20 14:38:34;;;;;;;16.58;4.78;;;;;;;;;;5052971;28;20029;-68
2022/05/20 14:41:04;;;;;;;9.45;4.80;;;;;;;;;;5047814;28;20040;-68
2022/05/20 14:43:35;;;;;;;13.65;5.20;;;;;;;;;;5047792;28;20385;-68
2022/05/20 14:46:02;;;;;;;18.38;4.80;;;;;;;;;;5048277;28;20032;-67
2022/05/20 14:48:28;;;;;;;14.82;4.65;;;;;;;;;;5048017;28;20035;-67
2022/05/20 14:50:56;;;;;;;13.60;5.00;;;;;;;;;;5051678;28;20033;-68
2022/05/20 14:53:36;;;;;;;14.77;5.47;;;;;;;;;;5050423;28;20044;-67
2022/05/20 14:56:02;;;;;;;12.30;5.28;;;;;;;;;;5045997;28;20029;-67
2022/05/20 14:58:31;;;;;;;15.52;5.25;;;;;;;;;;5046626;28;20025;-68
2022/05/20 15:01:01;;;;;;;15.23;5.43;;;;;;;;;;5050987;28;20484;-68
2022/05/20 15:03:30;;;;;;;18.08;6.25;;;;;;;;;;5044538;28;20124;-67
2022/05/20 15:05:57;;;;;;;14.98;4.88;;;;;;;;;;5051079;28;20071;-67
2022/05/20 15:08:25;;;;;;;14.88;5.97;;;;;;;;;;5051231;28;20032;-68
2022/05/20 15:10:55;;;;;;;17.77;4.80;;;;;;;;;;5047258;28;20033;-68
2022/05/20 15:13:21;;;;;;;14.50;4.85;;;;;;;;;;5037361;28;20516;-67
2022/05/20 15:15:48;;;;;;;16.83;5.63;;;;;;;;;;5047962;28;20039;-67
2022/05/20 15:18:14;;;;;;;14.27;5.15;;;;;;;;;;5050056;28;20041;-67
2022/05/20 15:20:42;;;;;;;19.80;5.60;;;;;;;;;;5051384;28;20374;-67
2022/05/20 15:23:13;;;;;;;12.63;5.18;;;;;;;;;;5048098;28;20048;-68
2022/05/20 15:25:39;;;;;;;13.45;5.03;;;;;;;;;;5049266;28;20059;-68
2022/05/20 15:28:47;;;;;;;13.30;4.38;;;;;;;;;;5048123;28;20029;-68
2022/05/20 15:34:51;;;;;;;13.65;5.00;;;;;;;;;;5047912;28;20461;-67
2022/05/20 15:36:23;;;;;;;15.50;5.32;;;;;;;;;;5049037;28;20509;-67
2022/05/20 15:38:49;;;;;;;19.58;5.57;;;;;;;;;;5051816;28;20041;-65
2022/05/20 15:41:15;;;;;;;12.75;5.53;;;;;;;;;;5039613;28;20493;-65
2022/05/20 15:43:41;;;;;;;11.15;5.32;;;;;;;;;;5043939;28;20037;-65
2022/05/20 15:46:07;;;;;;;18.00;5.57;;;;;;;;;;5048489;28;20645;-65
2022/05/20 15:48:33;;;;;;;9.63;4.95;;;;;;;;;;5047972;28;20482;-65
2022/05/20 15:50:59;;;;;;;14.52;4.97;;;;;;;;;;5051720;28;20027;-65